Time;durP1;ratioP1;P1;durP2;ratioP2;P2;SDS_P1;SDS_P2;PMS_P1;PMS_P2;Temp;Humidity;BMP_temperature;BMP_pressure;BME280_temperature;BME280_humidity;BME280_pressure;Samples;Min_cycle;Max_cycle;Signal;HPM_P1;HPM_P2
2021/11/17 02:28:09;;;;;;;5.27;4.50;;;;;;;4.10;100.00;101006.75;5012219;28;20601;-73
2021/11/17 02:30:40;;;;;;;2.30;2.17;;;;;;;4.07;100.00;100995.63;5015579;28;20192;-73
2021/11/17 02:33:24;;;;;;;3.07;2.43;;;;;;;4.06;100.00;100989.41;5010245;28;20199;-73
2021/11/17 02:36:11;;;;;;;5.03;4.53;;;;;;;4.09;100.00;100988.91;4992497;28;20651;-73
2021/11/17 02:39:03;;;;;;;4.47;4.17;;;;;;;4.12;100.00;100990.25;5024648;28;20670;-73
2021/11/17 02:41:34;;;;;;;5.83;4.93;;;;;;;4.13;100.00;100981.91;5032253;28;20180;-73
2021/11/17 02:44:15;;;;;;;6.33;5.23;;;;;;;4.17;100.00;100984.91;5031464;28;20669;-73
2021/11/17 02:47:24;;;;;;;5.40;4.40;;;;;;;4.17;100.00;100991.13;5031711;28;20223;-73
2021/11/17 02:50:06;;;;;;;2.80;2.23;;;;;;;4.18;100.00;100991.94;5031200;28;20630;-73
2021/11/17 02:52:44;;;;;;;2.27;2.17;;;;;;;4.16;100.00;100983.25;5032263;28;20160;-73
2021/11/17 02:55:40;;;;;;;1.37;1.23;;;;;;;4.17;100.00;100979.50;5031502;28;20473;-73
2021/11/17 02:58:20;;;;;;;8.30;4.63;;;;;;;4.16;100.00;100970.56;5031553;28;20176;-73
2021/11/17 03:01:07;;;;;;;2.33;2.13;;;;;;;4.18;100.00;100971.13;5034431;28;20208;-73
2021/11/17 03:03:45;;;;;;;2.17;2.00;;;;;;;4.21;100.00;100975.22;5011677;28;20211;-73
2021/11/17 03:06:37;;;;;;;3.87;3.50;;;;;;;4.23;100.00;100970.38;5026031;28;20184;-72
2021/11/17 03:09:11;;;;;;;0.80;0.77;;;;;;;4.25;100.00;100960.09;5024418;28;20173;-73
2021/11/17 03:11:55;;;;;;;1.90;1.70;;;;;;;4.24;100.00;100963.06;5011659;28;20254;-73
2021/11/17 03:14:41;;;;;;;2.97;2.67;;;;;;;4.28;100.00;100964.19;5025091;28;20188;-73
2021/11/17 03:17:19;;;;;;;3.07;2.63;;;;;;;4.27;100.00;100968.78;5011386;28;20263;-73
2021/11/17 03:20:03;;;;;;;5.57;2.77;;;;;;;4.30;100.00;100964.75;5011139;28;20180;-74
2021/11/17 03:22:37;;;;;;;1.30;1.23;;;;;;;4.29;100.00;100960.41;5011531;28;20203;-73
2021/11/17 03:25:11;;;;;;;2.43;1.67;;;;;;;4.29;100.00;100958.53;5011188;28;20172;-73
2021/11/17 03:27:42;;;;;;;3.23;2.37;;;;;;;4.30;100.00;100968.25;5011375;28;20205;-73
2021/11/17 03:30:33;;;;;;;5.87;2.47;;;;;;;4.27;100.00;100966.06;5011202;28;20204;-74
2021/11/17 03:33:17;;;;;;;3.13;2.33;;;;;;;4.25;100.00;100953.88;5010069;28;20184;-73
2021/11/17 03:35:42;;;;;;;5.63;2.93;;;;;;;4.24;100.00;100954.97;5011179;28;20245;-73
2021/11/17 03:38:14;;;;;;;3.00;1.93;;;;;;;4.22;100.00;100949.81;5011208;28;20280;-73
2021/11/17 03:40:52;;;;;;;5.07;3.50;;;;;;;4.21;100.00;100948.19;5009878;28;20214;-73
2021/11/17 03:43:40;;;;;;;2.17;1.53;;;;;;;4.22;100.00;100954.41;5011182;28;20181;-73
2021/11/17 03:46:33;;;;;;;2.63;2.23;;;;;;;4.22;100.00;100954.41;5011001;28;20640;-73
2021/11/17 03:49:39;;;;;;;5.83;3.20;;;;;;;4.20;100.00;100961.97;5011107;28;20626;-74
2021/11/17 03:52:11;;;;;;;3.37;3.07;;;;;;;4.21;100.00;100966.28;5028102;28;20358;-73
2021/11/17 03:54:58;;;;;;;2.33;2.07;;;;;;;4.18;100.00;100956.78;5028074;28;20314;-73
2021/11/17 03:57:41;;;;;;;5.13;3.77;;;;;;;4.17;100.00;100965.97;5017147;28;20309;-72
2021/11/17 04:00:25;;;;;;;7.67;3.23;;;;;;;4.16;100.00;100959.75;5011756;28;20187;-74
2021/11/17 04:03:09;;;;;;;3.70;3.50;;;;;;;4.16;100.00;100957.03;5015015;28;20203;-73
2021/11/17 04:06:06;;;;;;;0.67;0.67;;;;;;;4.16;100.00;100965.16;5014718;28;20801;-72
2021/11/17 04:08:47;;;;;;;3.63;3.10;;;;;;;4.16;100.00;100962.44;5032094;28;20466;-73
2021/11/17 04:11:18;;;;;;;1.97;1.87;;;;;;;4.17;100.00;100960.56;5034657;28;20172;-73
2021/11/17 04:14:17;;;;;;;1.07;1.03;;;;;;;4.15;100.00;100960.00;5034427;28;20218;-73
2021/11/17 04:16:48;;;;;;;3.10;2.83;;;;;;;4.16;100.00;100958.94;5034571;28;20191;-73
2021/11/17 04:19:35;;;;;;;3.90;3.50;;;;;;;4.18;100.00;100968.41;5034293;28;20172;-73
2021/11/17 04:22:23;;;;;;;5.87;4.30;;;;;;;4.21;100.00;100969.81;5034460;28;20233;-73
2021/11/17 04:25:02;;;;;;;1.03;0.83;;;;;;;4.21;100.00;100966.28;5034439;28;20180;-73
2021/11/17 04:27:45;;;;;;;4.07;3.67;;;;;;;4.21;100.00;100966.28;5034469;28;20214;-75
2021/11/17 04:30:33;;;;;;;2.73;1.43;;;;;;;4.20;100.00;100962.78;5032888;28;20176;-73
2021/11/17 04:33:04;;;;;;;3.53;3.23;;;;;;;4.23;100.00;100966.84;5034292;28;20172;-73
2021/11/17 04:35:32;;;;;;;2.43;1.87;;;;;;;4.21;100.00;100961.69;5034139;28;20178;-74
2021/11/17 04:38:20;;;;;;;4.17;3.40;;;;;;;4.21;100.00;100963.59;5034168;28;20188;-73
2021/11/17 04:41:00;;;;;;;8.90;2.73;;;;;;;4.19;100.00;100961.13;5049541;28;20188;-73
2021/11/17 04:43:25;;;;;;;2.13;2.03;;;;;;;4.18;100.00;100965.72;5034069;28;20313;-73
2021/11/17 04:46:12;;;;;;;1.90;1.53;;;;;;;4.16;100.00;100962.44;5033858;28;20679;-75
2021/11/17 04:49:03;;;;;;;3.50;3.27;;;;;;;4.15;100.00;100966.22;5033840;28;20274;-74
2021/11/17 04:51:28;;;;;;;3.93;2.83;;;;;;;4.12;100.00;100966.75;5032811;28;20200;-73
2021/11/17 04:54:19;;;;;;;1.40;1.07;;;;;;;4.11;100.00;100965.13;5033695;28;20203;-73
2021/11/17 04:57:05;;;;;;;0.83;0.83;;;;;;;4.09;100.00;100969.97;5033958;28;20172;-74
2021/11/17 04:59:40;;;;;;;8.77;3.63;;;;;;;4.09;100.00;100969.97;5033819;28;20168;-73
2021/11/17 05:02:14;;;;;;;5.23;1.60;;;;;;;4.11;100.00;100972.41;5033761;28;20830;-74
2021/11/17 05:04:46;;;;;;;4.13;3.37;;;;;;;4.14;100.00;100970.00;5033729;28;20183;-74
2021/11/17 05:07:29;;;;;;;4.37;3.73;;;;;;;4.15;100.00;100973.53;5033965;28;20216;-73
2021/11/17 05:09:57;;;;;;;2.70;2.50;;;;;;;4.16;100.00;100981.38;5033873;28;20199;-73
2021/11/17 05:12:38;;;;;;;2.60;2.40;;;;;;;4.16;100.00;100975.16;5033311;28;20176;-74
2021/11/17 05:15:33;;;;;;;2.87;2.57;;;;;;;4.13;100.00;100979.19;5032303;28;20534;-74
2021/11/17 05:18:30;;;;;;;1.97;1.60;;;;;;;4.12;100.00;100982.16;5033536;28;20164;-73
2021/11/17 05:21:14;;;;;;;1.63;1.43;;;;;;;4.11;100.00;100983.22;5031658;28;20222;-73
2021/11/17 05:24:04;;;;;;;5.77;2.17;;;;;;;4.09;100.00;100985.38;5021395;28;20215;-75
2021/11/17 05:26:47;;;;;;;4.93;3.63;;;;;;;4.08;100.00;100989.16;5003450;28;20192;-73
2021/11/17 05:29:30;;;;;;;3.93;3.50;;;;;;;4.06;100.00;100983.19;5013414;28;20165;-73
2021/11/17 05:32:05;;;;;;;1.63;1.53;;;;;;;4.06;100.00;100994.81;5013464;28;20168;-73
2021/11/17 05:34:53;;;;;;;4.47;4.17;;;;;;;4.02;100.00;100988.25;5013229;28;20164;-73
2021/11/17 05:37:40;;;;;;;4.40;4.07;;;;;;;3.99;100.00;100975.25;5013553;28;20504;-74
2021/11/17 05:40:14;;;;;;;4.10;3.73;;;;;;;3.98;100.00;100989.84;5013276;28;20230;-73
2021/11/17 05:43:05;;;;;;;2.10;1.70;;;;;;;3.97;100.00;100990.09;5013637;28;20577;-74
2021/11/17 05:45:48;;;;;;;5.97;4.83;;;;;;;3.98;100.00;100986.34;5013366;28;20648;-73
2021/11/17 05:48:28;;;;;;;8.30;2.67;;;;;;;3.96;100.00;100994.69;5013042;28;20206;-73
2021/11/17 05:51:19;;;;;;;1.70;1.60;;;;;;;3.95;100.00;100982.25;5013048;28;20169;-72
2021/11/17 05:54:06;;;;;;;3.77;3.47;;;;;;;3.93;100.00;100984.41;5027905;28;20630;-73
2021/11/17 05:57:02;;;;;;;2.83;1.77;;;;;;;3.92;100.00;100966.56;5032689;28;20259;-75
2021/11/17 05:59:48;;;;;;;8.07;2.07;;;;;;;3.93;100.00;100970.06;5032673;28;20176;-73
2021/11/17 06:02:28;;;;;;;3.23;3.00;;;;;;;3.93;100.00;100967.38;5032779;28;20168;-73
2021/11/17 06:04:54;;;;;;;2.60;2.47;;;;;;;3.95;100.00;100967.94;5032436;28;20184;-74
2021/11/17 06:07:19;;;;;;;10.23;6.53;;;;;;;3.93;100.00;100964.66;5032509;28;20558;-75
2021/11/17 06:09:44;;;;;;;20.03;7.60;;;;;;;3.96;100.00;100973.06;5032504;28;20183;-74
2021/11/17 06:12:12;;;;;;;7.57;5.27;;;;;;;3.98;100.00;100979.03;5031227;28;20176;-73
2021/11/17 06:14:42;;;;;;;5.10;3.80;;;;;;;3.98;100.00;100981.75;5032349;28;20176;-72
2021/11/17 06:17:13;;;;;;;6.63;5.63;;;;;;;4.00;100.00;100986.88;5032423;28;20183;-74
2021/11/17 06:19:42;;;;;;;2.10;1.90;;;;;;;3.98;100.00;100989.84;5031978;28;20267;-73
2021/11/17 06:22:10;;;;;;;5.77;3.23;;;;;;;3.99;100.00;100990.66;5032207;28;20266;-77
2021/11/17 06:24:37;;;;;;;6.63;6.00;;;;;;;4.01;100.00;100988.53;5031465;28;20211;-74
2021/11/17 06:27:06;;;;;;;2.07;1.97;;;;;;;4.02;100.00;101001.78;5032198;28;20298;-75
2021/11/17 06:29:39;;;;;;;1.97;1.87;;;;;;;4.02;100.00;100992.84;5031987;28;20309;-73
2021/11/17 06:32:05;;;;;;;6.37;4.10;;;;;;;4.01;100.00;100992.03;5031991;28;20711;-74
2021/11/17 06:34:35;;;;;;;8.27;6.57;;;;;;;4.01;100.00;100992.03;5031912;28;20175;-73
2021/11/17 06:37:05;;;;;;;4.03;3.77;;;;;;;3.99;100.00;101005.00;5032023;28;20184;-74
2021/11/17 06:39:32;;;;;;;3.97;3.67;;;;;;;3.97;100.00;101004.44;5031784;28;20243;-73
2021/11/17 06:41:59;;;;;;;4.30;4.00;;;;;;;3.98;100.00;101003.38;5032140;28;20754;-73
2021/11/17 06:44:25;;;;;;;15.47;6.50;;;;;;;3.97;100.00;101000.91;5031861;28;20588;-75
2021/11/17 06:46:52;;;;;;;6.70;3.60;;;;;;;3.96;100.00;100994.69;5031794;28;20269;-74
2021/11/17 06:49:18;;;;;;;4.00;2.90;;;;;;;3.93;100.00;100997.09;5031552;28;20226;-73
2021/11/17 06:51:43;;;;;;;8.10;4.10;;;;;;;3.89;100.00;100994.06;5031735;28;20203;-73
2021/11/17 06:54:08;;;;;;;11.33;4.57;;;;;;;3.92;100.00;100996.28;5030424;28;20172;-73
2021/11/17 06:56:34;;;;;;;1.87;1.77;;;;;;;3.92;100.00;101004.41;5031360;28;20172;-73
2021/11/17 06:58:59;;;;;;;14.87;5.47;;;;;;;3.93;100.00;101008.72;5013000;28;20176;-77
2021/11/17 07:01:25;;;;;;;1.33;0.93;;;;;;;3.96;100.00;101012.81;5011682;28;20181;-77
2021/11/17 07:03:50;;;;;;;1.70;1.60;;;;;;;3.97;100.00;101015.25;5011464;28;20206;-76
2021/11/17 07:06:15;;;;;;;2.60;2.37;;;;;;;3.97;100.00;101012.53;5011605;28;20188;-77
2021/11/17 07:08:41;;;;;;;0.90;0.63;;;;;;;3.97;100.00;101017.94;5011540;28;20346;-73
2021/11/17 07:11:06;;;;;;;1.63;1.43;;;;;;;3.96;100.00;101020.91;5011431;28;20185;-73
2021/11/17 07:13:32;;;;;;;6.37;5.77;;;;;;;3.93;100.00;101022.25;5011488;28;20203;-71
2021/11/17 07:15:57;;;;;;;2.60;2.50;;;;;;;3.86;100.00;101025.13;5011295;28;20204;-76
2021/11/17 07:18:23;;;;;;;1.20;1.20;;;;;;;3.83;100.00;101011.31;5011353;28;20195;-76
2021/11/17 07:20:49;;;;;;;5.77;1.83;;;;;;;3.80;100.00;101017.22;5011230;28;20176;-73
2021/11/17 07:23:16;;;;;;;2.80;2.00;;;;;;;3.76;100.00;101010.66;5011420;28;20194;-74
2021/11/17 07:25:41;;;;;;;8.50;3.47;;;;;;;3.78;100.00;101009.38;5014480;28;20250;-74
2021/11/17 07:28:07;;;;;;;8.07;5.03;;;;;;;3.78;100.00;101014.78;5011142;28;20220;-71
2021/11/17 07:30:36;;;;;;;8.03;3.93;;;;;;;3.79;100.00;101010.19;5011162;28;20176;-73
2021/11/17 07:33:04;;;;;;;10.73;6.63;;;;;;;3.81;100.00;101003.44;5011200;28;20234;-73
2021/11/17 07:35:32;;;;;;;5.67;4.80;;;;;;;3.84;100.00;101012.94;5010880;28;20259;-71
2021/11/17 07:38:01;;;;;;;5.87;4.40;;;;;;;3.84;100.00;100999.41;5011131;28;20483;-73
2021/11/17 07:40:30;;;;;;;2.27;2.07;;;;;;;3.83;100.00;100986.97;5011165;28;20207;-72
2021/11/17 07:42:55;;;;;;;6.40;4.40;;;;;;;3.81;100.00;100987.25;5011067;28;20308;-74
2021/11/17 07:45:22;;;;;;;3.93;2.47;;;;;;;3.80;100.00;100984.78;5010967;28;20637;-73
2021/11/17 07:47:47;;;;;;;4.47;3.37;;;;;;;3.84;100.00;100980.50;5010999;28;20204;-77
2021/11/17 07:50:14;;;;;;;3.80;3.47;;;;;;;3.88;100.00;100987.03;5012940;28;20631;-76
2021/11/17 07:52:40;;;;;;;3.63;3.40;;;;;;;3.94;100.00;100986.03;5030766;28;20178;-75
2021/11/17 07:55:09;;;;;;;2.90;1.60;;;;;;;3.96;100.00;100973.06;5030557;28;20180;-76
2021/11/17 07:57:37;;;;;;;1.17;1.07;;;;;;;4.00;100.00;100976.91;5030708;28;20180;-75
2021/11/17 08:00:06;;;;;;;2.00;1.83;;;;;;;4.06;100.00;100973.19;5030649;28;20175;-74
2021/11/17 08:02:31;;;;;;;7.40;5.27;;;;;;;4.13;100.00;100981.09;5031222;28;20176;-73
2021/11/17 08:04:56;;;;;;;1.73;1.63;;;;;;;4.18;100.00;100971.13;5030893;28;20191;-72
2021/11/17 08:07:22;;;;;;;1.87;1.77;;;;;;;4.23;100.00;100983.91;5023540;28;20212;-73
2021/11/17 08:09:49;;;;;;;2.33;2.13;;;;;;;4.26;100.00;100977.16;5010890;28;20683;-73
2021/11/17 08:12:15;;;;;;;3.00;1.73;;;;;;;4.29;100.00;100963.94;5011032;28;20181;-72
2021/11/17 08:14:40;;;;;;;4.13;2.23;;;;;;;4.33;100.00;100958.81;5018212;28;20187;-75
2021/11/17 08:17:06;;;;;;;0.83;0.83;;;;;;;4.32;100.00;100959.88;5017918;28;20181;-72
2021/11/17 08:19:32;;;;;;;1.80;0.93;;;;;;;4.28;100.00;100956.06;5016156;28;20538;-79
2021/11/17 08:21:58;;;;;;;1.47;1.20;;;;;;;4.23;100.00;100953.34;5020577;28;20175;-78
2021/11/17 08:24:24;;;;;;;3.80;2.77;;;;;;;4.22;100.00;100959.81;5013288;28;20188;-79
2021/11/17 08:26:50;;;;;;;2.93;2.73;;;;;;;4.24;100.00;100971.19;5010974;28;20200;-77
2021/11/17 08:29:15;;;;;;;3.30;3.10;;;;;;;4.25;100.00;100968.22;5018056;28;20262;-79
2021/11/17 08:31:41;;;;;;;5.57;3.53;;;;;;;4.32;100.00;100973.41;5030439;28;20298;-78
2021/11/17 08:34:08;;;;;;;1.97;1.73;;;;;;;4.35;100.00;100981.84;5030290;28;20564;-79
2021/11/17 08:36:34;;;;;;;1.17;1.10;;;;;;;4.35;100.00;100965.63;5030310;28;20615;-81
2021/11/17 08:39:01;;;;;;;1.57;1.47;;;;;;;4.40;100.00;100981.06;5030486;28;20186;-80
2021/11/17 08:41:28;;;;;;;2.53;2.00;;;;;;;4.41;100.00;100993.53;5030323;28;20172;-77
2021/11/17 08:43:54;;;;;;;2.77;2.57;;;;;;;4.46;100.00;100999.78;5028853;28;20176;-75
2021/11/17 08:46:20;;;;;;;1.57;1.47;;;;;;;4.51;100.00;100993.63;5031277;28;20646;-80
2021/11/17 08:48:46;;;;;;;1.20;1.13;;;;;;;4.59;100.00;100993.13;5033892;28;20187;-77
2021/11/17 08:51:15;;;;;;;1.57;1.47;;;;;;;4.61;100.00;101001.81;5024844;28;20181;-76
2021/11/17 08:53:44;;;;;;;1.83;1.73;;;;;;;4.61;100.00;101007.22;5014061;28;20670;-78
2021/11/17 08:56:10;;;;;;;1.00;1.00;;;;;;;4.67;100.00;101014.31;5012788;28;20515;-78
2021/11/17 08:58:37;;;;;;;2.23;1.93;;;;;;;4.70;100.00;101016.50;5014160;28;20181;-76
2021/11/17 09:01:03;;;;;;;0.50;0.40;;;;;;;4.70;100.00;101015.69;5013922;28;20246;-76
2021/11/17 09:03:29;;;;;;;4.87;4.03;;;;;;;4.70;100.00;100996.75;5013974;28;20185;-72
2021/11/17 09:05:57;;;;;;;1.67;1.57;;;;;;;4.71;100.00;100998.38;5013787;28;20292;-79
2021/11/17 09:08:24;;;;;;;2.00;1.80;;;;;;;4.74;100.00;101009.50;5013823;28;20208;-78
2021/11/17 09:10:53;;;;;;;1.30;0.20;;;;;;;4.76;100.00;100991.09;5013724;28;20251;-77
2021/11/17 09:13:19;;;;;;;2.83;1.87;;;;;;;4.81;100.00;100994.94;5013508;28;20172;-78
2021/11/17 09:15:48;;;;;;;1.00;1.00;;;;;;;4.86;100.00;100984.94;5013048;28;20628;-76
2021/11/17 09:18:16;;;;;;;2.47;2.30;;;;;;;4.99;100.00;100979.09;5013373;28;20172;-79
2021/11/17 09:20:42;;;;;;;1.13;1.13;;;;;;;4.98;100.00;100991.00;5012980;28;20172;-78
2021/11/17 09:23:10;;;;;;;1.37;1.27;;;;;;;4.97;100.00;100988.56;5012315;28;20770;-78
2021/11/17 09:25:37;;;;;;;0.27;0.27;;;;;;;5.12;100.00;100985.13;5012307;28;20183;-76
2021/11/17 09:28:03;;;;;;;1.67;1.57;;;;;;;5.31;100.00;100981.72;5013023;28;20207;-76
2021/11/17 09:30:31;;;;;;;2.67;1.63;;;;;;;5.40;100.00;101000.19;5012875;28;20176;-75
2021/11/17 09:32:59;;;;;;;0.83;0.83;;;;;;;5.41;100.00;100999.09;5013354;28;20636;-74
2021/11/17 09:35:28;;;;;;;2.07;1.80;;;;;;;5.43;100.00;101007.78;5012838;28;20264;-75
2021/11/17 09:37:54;;;;;;;0.97;0.87;;;;;;;5.40;100.00;101011.03;5012789;28;20173;-75
2021/11/17 09:40:23;;;;;;;2.17;1.97;;;;;;;5.38;100.00;101031.06;5012725;28;20173;-74
2021/11/17 09:42:50;;;;;;;2.73;2.50;;;;;;;5.36;100.00;101027.00;5012694;28;20256;-73
2021/11/17 09:45:16;;;;;;;1.13;1.03;;;;;;;5.34;100.00;101031.84;5012718;28;20255;-74
2021/11/17 09:47:44;;;;;;;1.37;1.27;;;;;;;5.26;100.00;101016.91;5012645;28;20236;-75
2021/11/17 09:50:15;;;;;;;0.93;0.93;;;;;;;5.27;100.00;101026.66;5012784;28;20243;-73
2021/11/17 09:52:51;;;;;;;1.53;1.43;;;;;;;5.25;100.00;101018.00;5012857;28;20167;-72
2021/11/17 09:55:29;;;;;;;1.13;0.47;;;;;;;5.27;100.00;101032.09;5012597;28;20164;-73
2021/11/17 09:58:18;;;;;;;3.17;2.87;;;;;;;5.26;100.00;101021.50;5011485;28;20507;-73
2021/11/17 10:00:55;;;;;;;2.70;2.50;;;;;;;5.30;100.00;101036.16;5012731;28;20647;-72
2021/11/17 10:03:30;;;;;;;2.43;1.53;;;;;;;5.36;100.00;101035.94;5013057;28;20530;-73
2021/11/17 10:06:47;;;;;;;5.67;2.43;;;;;;;5.35;100.00;101042.44;5012282;28;20187;-72
2021/11/17 10:09:41;;;;;;;3.67;3.33;;;;;;;5.36;100.00;101041.34;5012813;28;20192;-72
2021/11/17 10:14:59;;;;;;;2.63;2.30;;;;;;;5.45;100.00;101024.59;5012193;28;20176;-74
2021/11/17 10:17:55;;;;;;;1.43;1.30;;;;;;;5.50;100.00;101025.44;5012232;28;20185;-72
2021/11/17 10:20:31;;;;;;;0.60;0.60;;;;;;;5.49;100.00;101020.25;5003726;28;20199;-73
2021/11/17 10:23:05;;;;;;;1.43;1.30;;;;;;;5.43;100.00;101014.00;5012389;28;20176;-73
2021/11/17 10:25:41;;;;;;;3.27;2.97;;;;;;;5.37;100.00;101009.66;5012084;28;20636;-73
2021/11/17 10:28:06;;;;;;;2.63;2.43;;;;;;;5.35;100.00;101001.81;5012371;28;20207;-73
2021/11/17 10:30:50;;;;;;;1.20;1.10;;;;;;;5.41;100.00;101001.81;5010778;28;20181;-73
2021/11/17 10:33:21;;;;;;;1.43;1.33;;;;;;;5.45;100.00;100992.88;5012257;28;20572;-73
2021/11/17 10:36:04;;;;;;;2.73;2.53;;;;;;;5.52;100.00;101003.50;5011693;28;20835;-73
2021/11/17 10:38:42;;;;;;;1.10;1.10;;;;;;;5.58;100.00;101000.53;5011401;28;20177;-73
2021/11/17 10:41:29;;;;;;;3.53;2.63;;;;;;;5.67;100.00;100992.72;5010485;28;20176;-73
2021/11/17 10:44:04;;;;;;;2.03;1.93;;;;;;;5.71;100.00;100999.25;5011529;28;20191;-73
2021/11/17 10:46:45;;;;;;;0.63;0.60;;;;;;;5.72;100.00;100998.16;5012078;28;20688;-72
2021/11/17 10:49:15;;;;;;;0.97;0.93;;;;;;;5.79;100.00;100989.78;5011599;28;20197;-73
2021/11/17 10:51:54;;;;;;;3.87;3.57;;;;;;;5.83;100.00;100996.31;5011444;28;20180;-73
2021/11/17 10:54:23;;;;;;;1.80;1.70;;;;;;;5.84;100.00;100993.31;5011285;28;20179;-73
2021/11/17 10:57:08;;;;;;;3.07;2.23;;;;;;;5.82;100.00;100983.84;5011359;28;20177;-73
2021/11/17 10:59:34;;;;;;;1.63;1.53;;;;;;;5.85;100.00;100975.97;5011367;28;20639;-73
2021/11/17 11:02:01;;;;;;;2.33;2.13;;;;;;;5.90;100.00;100978.72;5011548;28;20180;-72
2021/11/17 11:04:31;;;;;;;1.40;1.30;;;;;;;5.93;100.00;100972.78;5011007;28;20672;-73
2021/11/17 11:07:07;;;;;;;3.07;2.67;;;;;;;5.97;100.00;100978.47;5011350;28;20188;-73
2021/11/17 11:09:52;;;;;;;3.13;2.93;;;;;;;6.00;100.00;100982.56;5010899;28;20218;-73
2021/11/17 11:12:20;;;;;;;3.53;3.23;;;;;;;6.04;100.00;100991.78;5011218;28;20168;-73
2021/11/17 11:14:55;;;;;;;4.30;3.67;;;;;;;6.05;100.00;100985.25;5010963;28;20173;-73
2021/11/17 11:17:30;;;;;;;5.67;4.93;;;;;;;6.07;100.00;100985.81;5011229;28;20168;-72
2021/11/17 11:20:15;;;;;;;4.70;4.23;;;;;;;6.11;100.00;100976.88;5011010;28;20630;-73
2021/11/17 11:23:02;;;;;;;7.73;4.77;;;;;;;6.12;100.00;100966.84;5010900;28;20176;-73
2021/11/17 11:25:55;;;;;;;4.83;3.43;;;;;;;6.10;100.00;100960.88;5010835;28;20175;-73
2021/11/17 11:28:20;;;;;;;5.70;4.60;;;;;;;6.12;100.00;100978.50;5010796;28;20199;-76
2021/11/17 11:30:47;;;;;;;3.40;2.63;;;;;;;6.10;100.00;100969.03;5011070;28;20173;-76
2021/11/17 11:33:30;;;;;;;4.77;3.57;;;;;;;6.09;100.00;100970.91;5011051;28;20173;-74
2021/11/17 11:36:10;;;;;;;2.27;1.63;;;;;;;6.10;100.00;100967.13;5010778;28;20207;-71
2021/11/17 11:38:48;;;;;;;2.43;1.00;;;;;;;6.11;100.00;100970.66;5010810;28;20172;-70
2021/11/17 11:41:29;;;;;;;5.43;2.93;;;;;;;6.11;100.00;100959.81;5010829;28;20176;-71
2021/11/17 11:44:23;;;;;;;7.93;4.63;;;;;;;6.15;100.00;100969.03;5010391;28;20207;-71
2021/11/17 11:46:57;;;;;;;4.30;3.30;;;;;;;6.17;100.00;100970.38;5010570;28;20203;-72
2021/11/17 11:49:48;;;;;;;3.67;3.33;;;;;;;6.18;100.00;100976.63;5010619;28;20226;-72
2021/11/17 11:52:22;;;;;;;2.03;1.80;;;;;;;6.14;100.00;100978.25;5010771;28;20566;-72
2021/11/17 11:54:50;;;;;;;2.17;2.00;;;;;;;6.08;100.00;100976.63;5010460;28;20211;-71
2021/11/17 11:57:40;;;;;;;5.07;4.00;;;;;;;6.01;100.00;100976.03;5010572;28;20189;-72
2021/11/17 12:00:17;;;;;;;3.70;3.40;;;;;;;5.92;100.00;100965.72;5010597;28;20180;-71
2021/11/17 12:03:10;;;;;;;0.83;0.83;;;;;;;5.89;100.00;100957.25;5010656;28;20179;-71
2021/11/17 12:05:39;;;;;;;3.93;2.90;;;;;;;5.89;100.00;100959.97;5008908;28;20691;-70
2021/11/17 12:08:25;;;;;;;3.03;2.43;;;;;;;5.90;100.00;100954.31;5010700;28;20204;-71
2021/11/17 12:11:08;;;;;;;3.13;2.87;;;;;;;5.92;100.00;100962.19;5010483;28;20189;-72
2021/11/17 12:13:35;;;;;;;2.27;2.10;;;;;;;5.92;100.00;100954.03;5010418;28;20300;-70
2021/11/17 12:16:30;;;;;;;2.50;2.30;;;;;;;5.93;100.00;100952.97;5010412;28;20465;-71
2021/11/17 12:19:00;;;;;;;5.73;5.13;;;;;;;5.99;100.00;100954.63;5010442;28;20181;-71
2021/11/17 12:21:41;;;;;;;3.17;2.90;;;;;;;6.03;100.00;100961.13;5011695;28;20187;-71
2021/11/17 12:24:21;;;;;;;2.33;1.53;;;;;;;6.05;100.00;100963.56;5014103;28;20226;-71
2021/11/17 12:26:58;;;;;;;3.00;2.73;;;;;;;6.06;100.00;100968.72;5014247;28;20176;-72
2021/11/17 12:29:28;;;;;;;4.17;3.00;;;;;;;6.07;100.00;100961.41;5014183;28;20185;-71
2021/11/17 12:31:57;;;;;;;2.93;2.67;;;;;;;6.06;100.00;100957.06;5014271;28;20235;-70
2021/11/17 12:34:30;;;;;;;2.00;1.83;;;;;;;6.07;100.00;100980.38;5013838;28;20200;-70
2021/11/17 12:36:57;;;;;;;2.50;2.33;;;;;;;6.08;100.00;100974.72;5013756;28;20267;-71
2021/11/17 12:39:28;;;;;;;2.13;2.03;;;;;;;6.08;100.00;100991.00;5013983;28;20232;-70
2021/11/17 12:41:57;;;;;;;1.80;1.70;;;;;;;6.08;100.00;100985.56;5014092;28;20426;-70
2021/11/17 12:44:27;;;;;;;2.13;1.57;;;;;;;6.11;100.00;100987.75;5013696;28;20650;-70
2021/11/17 12:47:24;;;;;;;2.77;2.57;;;;;;;6.10;100.00;100986.09;5013915;28;20204;-71
2021/11/17 12:49:59;;;;;;;1.20;1.20;;;;;;;6.13;100.00;100985.56;5013716;28;20546;-71
2021/11/17 12:52:41;;;;;;;1.33;1.10;;;;;;;6.18;100.00;100984.75;5013845;28;20431;-70
2021/11/17 12:55:16;;;;;;;3.70;2.73;;;;;;;6.18;100.00;100987.47;5013553;28;20215;-70
2021/11/17 12:57:48;;;;;;;2.27;2.07;;;;;;;6.18;100.00;100993.69;5013623;28;20172;-70
2021/11/17 13:00:13;;;;;;;1.63;1.40;;;;;;;6.19;100.00;100991.81;5013648;28;20177;-71
2021/11/17 13:03:00;;;;;;;3.60;2.67;;;;;;;6.22;100.00;100989.41;5012233;28;20181;-73
2021/11/17 13:05:34;;;;;;;1.80;1.50;;;;;;;6.24;100.00;101002.69;5013233;28;20290;-72
2021/11/17 13:08:02;;;;;;;2.37;1.73;;;;;;;6.23;100.00;100999.16;5013471;28;20212;-72
2021/11/17 13:10:33;;;;;;;3.63;2.00;;;;;;;6.25;100.00;101010.56;5013476;28;20678;-71
2021/11/17 13:13:23;;;;;;;1.83;1.73;;;;;;;6.24;100.00;101017.06;5013483;28;20628;-71
2021/11/17 13:15:48;;;;;;;2.03;1.57;;;;;;;6.21;100.00;101022.19;5012999;28;20265;-72
2021/11/17 13:18:28;;;;;;;2.33;2.10;;;;;;;6.21;100.00;101030.34;5013326;28;20200;-71
2021/11/17 13:21:09;;;;;;;1.97;1.67;;;;;;;6.16;100.00;101031.16;5013239;28;20639;-71
2021/11/17 13:23:42;;;;;;;3.60;1.67;;;;;;;6.14;100.00;101011.59;5013191;28;20292;-70
2021/11/17 13:26:18;;;;;;;3.03;2.33;;;;;;;6.12;100.00;101015.69;5013048;28;20556;-70
2021/11/17 13:28:47;;;;;;;9.00;3.27;;;;;;;6.07;100.00;101013.75;5013062;28;20543;-71
2021/11/17 13:31:21;;;;;;;4.67;3.30;;;;;;;6.06;100.00;101000.44;5012016;28;20590;-73
2021/11/17 13:33:58;;;;;;;5.23;2.73;;;;;;;6.04;100.00;100997.19;5012596;28;20179;-71
2021/11/17 13:36:54;;;;;;;14.40;4.83;;;;;;;6.04;100.00;101019.72;5013100;28;20260;-70
2021/11/17 13:39:22;;;;;;;3.07;2.77;;;;;;;6.03;100.00;101009.94;5016428;28;20216;-71
2021/11/17 13:41:51;;;;;;;2.87;1.70;;;;;;;6.05;100.00;101020.53;5012924;28;20195;-70
2021/11/17 13:44:20;;;;;;;2.00;1.80;;;;;;;6.04;100.00;101011.56;5012700;28;20260;-75
2021/11/17 13:46:53;;;;;;;4.60;2.93;;;;;;;6.04;100.00;101021.59;5012683;28;20597;-70
2021/11/17 13:49:19;;;;;;;10.83;4.33;;;;;;;6.07;100.00;101024.59;5012700;28;20187;-71
2021/11/17 13:51:44;;;;;;;2.17;2.07;;;;;;;6.08;100.00;101011.88;5012797;28;20176;-71
2021/11/17 13:54:09;;;;;;;1.93;1.73;;;;;;;6.08;100.00;101012.69;5012395;28;20272;-72
2021/11/17 13:56:38;;;;;;;3.40;3.10;;;;;;;6.10;100.00;101012.41;5012566;28;20180;-71
2021/11/17 13:59:04;;;;;;;7.57;5.90;;;;;;;6.14;100.00;101018.94;5012481;28;20192;-71
2021/11/17 14:01:30;;;;;;;3.73;1.97;;;;;;;6.21;100.00;101008.63;5012804;28;20216;-71
2021/11/17 14:03:56;;;;;;;2.00;1.20;;;;;;;6.24;100.00;101005.41;5012340;28;20212;-72
2021/11/17 14:06:23;;;;;;;6.37;3.97;;;;;;;6.27;100.00;100999.44;5012711;28;20188;-71
2021/11/17 14:08:50;;;;;;;0.87;0.87;;;;;;;6.28;100.00;100992.09;5012560;28;20227;-70
2021/11/17 14:11:16;;;;;;;4.13;3.33;;;;;;;6.30;100.00;100998.06;5012511;28;20181;-71
2021/11/17 14:13:43;;;;;;;2.17;2.07;;;;;;;6.31;100.00;100997.81;5012257;28;20527;-72
2021/11/17 14:16:10;;;;;;;5.43;4.90;;;;;;;6.37;100.00;101013.03;5011765;28;20177;-72
2021/11/17 14:18:36;;;;;;;5.13;3.57;;;;;;;6.40;100.00;101023.34;5012309;28;20627;-70
2021/11/17 14:21:04;;;;;;;4.13;3.83;;;;;;;6.45;100.00;101034.19;5012055;28;20271;-71
2021/11/17 14:23:30;;;;;;;1.60;1.37;;;;;;;6.47;100.00;101029.31;5011967;28;20177;-76
2021/11/17 14:25:55;;;;;;;3.83;2.07;;;;;;;6.51;100.00;101026.88;5011868;28;20187;-74
2021/11/17 14:28:28;;;;;;;5.47;4.97;;;;;;;6.52;100.00;101021.19;5011748;28;20287;-75